createdAt,value
2018-07-19T05:26:28.377Z,22.90
2018-07-19T05:29:00.372Z,22.96
2018-07-19T05:31:33.661Z,23.15
2018-07-19T05:34:05.391Z,22.98
2018-07-19T05:36:37.350Z,23.08
2018-07-19T05:39:12.269Z,23.12
2018-07-19T05:41:44.313Z,23.36
2018-07-19T05:44:16.390Z,23.61
2018-07-19T05:46:48.611Z,24.20
2018-07-19T05:49:20.180Z,24.48
2018-07-19T05:51:51.505Z,24.47
2018-07-19T05:54:23.331Z,24.60
2018-07-19T05:56:55.255Z,24.84
2018-07-19T05:59:28.658Z,24.72
2018-07-19T06:02:01.803Z,24.82
2018-07-19T06:04:33.673Z,24.58
2018-07-19T06:07:05.715Z,24.80
2018-07-19T06:09:37.979Z,25.04
2018-07-19T06:12:10.388Z,25.25
2018-07-19T06:14:41.781Z,25.44
2018-07-19T06:17:13.249Z,25.84
2018-07-19T06:19:45.050Z,25.95
2018-07-19T06:22:17.093Z,25.88
2018-07-19T06:24:49.386Z,25.88
2018-07-19T06:27:21.544Z,26.00
2018-07-19T06:29:52.908Z,26.41
2018-07-19T06:32:24.905Z,26.36
2018-07-19T06:34:56.891Z,26.98
2018-07-19T06:37:28.893Z,27.73
2018-07-19T06:40:00.884Z,27.50
2018-07-19T06:42:32.922Z,27.59
2018-07-19T06:45:05.835Z,27.55
2018-07-19T06:47:44.868Z,27.60
2018-07-19T06:50:23.570Z,27.50
2018-07-19T06:52:57.817Z,27.82
2018-07-19T06:58:12.840Z,29.05
2018-07-19T07:00:54.276Z,29.54
2018-07-19T07:03:30.363Z,30.06
2018-07-19T07:06:01.659Z,30.51
2018-07-19T07:08:33.644Z,30.53
2018-07-19T07:11:06.099Z,30.65
2018-07-19T07:13:38.457Z,30.95
2018-07-19T07:16:10.473Z,31.08
2018-07-19T07:18:42.592Z,31.65
2018-07-19T07:21:14.583Z,31.89
2018-07-19T07:23:49.404Z,31.19
2018-07-19T07:26:31.068Z,29.45
2018-07-19T07:30:03.785Z,28.87
2018-07-19T18:47:56.987Z,26.93
2018-07-19T18:50:30.057Z,26.80
2018-07-19T18:53:01.438Z,26.73
2018-07-19T18:55:34.332Z,26.67
2018-07-19T18:58:10.814Z,26.62
2018-07-19T19:00:42.572Z,26.55
2018-07-19T19:03:13.819Z,26.44
2018-07-19T19:05:47.659Z,26.44
2018-07-19T19:08:20.989Z,26.42
2018-07-19T19:10:54.905Z,26.42
2018-07-19T19:13:27.217Z,26.44
2018-07-19T19:15:59.919Z,26.44
2018-07-19T19:18:34.438Z,26.48
2018-07-19T19:21:09.211Z,26.45
2018-07-19T19:23:41.806Z,26.38
2018-07-19T19:26:29.725Z,26.26
2018-07-19T19:29:02.121Z,26.39
2018-07-19T19:31:33.435Z,26.41
2018-07-19T19:34:08.111Z,26.41
2018-07-19T19:36:40.141Z,26.38
2018-07-19T19:39:14.423Z,26.44
2018-07-19T19:41:45.671Z,26.35
2018-07-19T19:44:18.960Z,26.31
2018-07-19T19:46:50.264Z,26.20
2018-07-19T19:52:30.544Z,25.41
2018-07-19T19:55:01.964Z,25.03
2018-07-19T19:57:34.395Z,24.92
2018-07-19T20:00:07.793Z,24.56
2018-07-19T20:02:39.108Z,24.40
2018-07-19T20:05:12.923Z,24.79
2018-07-19T20:07:48.036Z,24.93
2018-07-19T20:10:39.323Z,24.96
2018-07-19T20:13:11.459Z,25.10
2018-07-19T20:15:45.678Z,25.29
2018-07-19T20:18:19.226Z,25.46
2018-07-19T20:20:52.965Z,25.54
2018-07-19T20:23:26.385Z,25.59
2018-07-19T20:25:59.719Z,25.54
2018-07-19T20:28:31.422Z,25.37
2018-07-19T20:31:04.441Z,25.14
2018-07-19T20:33:38.995Z,25.31
2018-07-19T20:36:12.985Z,25.44
2018-07-19T20:38:45.491Z,25.38
2018-07-19T20:41:18.685Z,24.43
2018-07-19T20:43:54.269Z,23.64
2018-07-19T20:46:26.173Z,23.20
2018-07-19T20:49:01.471Z,22.85
2018-07-19T20:51:33.042Z,22.57
2018-07-19T20:54:05.866Z,22.35
2018-07-19T20:56:37.505Z,22.19
2018-07-19T20:59:10.804Z,22.22
2018-07-19T21:01:47.660Z,22.58
2018-07-19T21:04:22.481Z,22.40
2018-07-19T21:06:55.393Z,22.23
2018-07-19T21:09:29.147Z,22.09
2018-07-19T21:12:03.472Z,22.26
2018-07-19T21:14:35.241Z,22.51
2018-07-19T21:17:08.375Z,22.32
2018-07-19T21:19:42.289Z,22.14
2018-07-19T21:22:16.117Z,22.24
2018-07-19T21:24:49.912Z,22.19
2018-07-19T21:27:23.506Z,22.11
2018-07-19T21:29:55.246Z,22.00
2018-07-19T21:32:29.811Z,21.87
2018-07-19T21:35:04.782Z,21.68
2018-07-19T21:37:38.360Z,21.60
2018-07-19T21:40:10.857Z,21.43
2018-07-19T21:42:44.396Z,21.72
2018-07-19T21:45:21.495Z,22.87
2018-07-19T21:47:53.631Z,23.15
2018-07-19T21:50:26.575Z,23.02
2018-07-19T21:52:58.558Z,22.79
2018-07-19T21:55:31.502Z,22.55
2018-07-19T21:58:04.841Z,22.43
2018-07-19T22:00:40.712Z,22.41
2018-07-19T22:03:12.124Z,22.23
2018-07-19T22:05:45.265Z,21.94
2018-07-19T22:08:18.808Z,21.53
2018-07-19T22:10:51.505Z,21.21
2018-07-19T22:13:28.845Z,21.04
2018-07-19T22:16:02.335Z,21.01
2018-07-19T22:18:38.002Z,21.30
2018-07-19T22:21:10.149Z,21.41
2018-07-19T22:23:41.577Z,21.16
2018-07-19T22:26:14.313Z,21.11
2018-07-19T22:28:45.734Z,21.45
2018-07-19T22:31:20.026Z,21.39
2018-07-19T22:34:00.927Z,21.20
2018-07-19T22:36:35.735Z,21.14
2018-07-19T22:39:12.255Z,21.06
2018-07-19T22:41:46.899Z,21.14
2018-07-19T22:44:19.684Z,21.29
2018-07-19T22:46:51.408Z,21.16
2018-07-19T22:49:26.535Z,21.01
2018-07-19T22:51:59.225Z,20.89
2018-07-19T22:54:31.922Z,20.81
2018-07-19T22:57:06.161Z,20.65
2018-07-19T22:59:39.005Z,20.55
2018-07-19T23:02:10.435Z,20.46
2018-07-19T23:04:44.546Z,20.30
2018-07-19T23:07:15.812Z,20.20
2018-07-19T23:09:47.193Z,20.08
2018-07-19T23:12:20.536Z,19.96
2018-07-19T23:14:52.746Z,20.11
2018-07-19T23:17:26.219Z,20.28
2018-07-19T23:19:58.480Z,20.43
2018-07-19T23:22:31.706Z,21.08
2018-07-19T23:25:04.544Z,21.26
2018-07-19T23:27:37.473Z,21.23
2018-07-19T23:30:10.945Z,21.13
2018-07-19T23:32:43.109Z,21.02
2018-07-19T23:35:22.227Z,20.79
2018-07-19T23:37:59.185Z,20.49
2018-07-19T23:40:37.153Z,20.07
2018-07-19T23:43:16.017Z,19.74
2018-07-19T23:46:04.998Z,19.55
2018-07-19T23:48:38.811Z,19.34
2018-07-19T23:51:10.573Z,19.35
2018-07-19T23:53:44.541Z,19.35
2018-07-19T23:56:17.037Z,19.27
2018-07-19T23:58:48.288Z,19.23
